Strona główna
METAR-TAF:

METAR-TAF

Lotnisko :

Odiham, Anglia

Szerokość geograficzna: 51-14N, Długość geograficzna: 000-57W, wysokość: 123 m

Aktualna obserwacja pogody

Raport powstał 1 godzina i 22 minut temu, godzina 02:50 UTC
Wiatr 9 kt od południowy zachód
Temperatura 5°C
Wilgotność 87%
Ciśnienie 1008 hPa
Widzialność 10 km lub więcej
Mało chmury na wysokości 2600 ft

METAR: EGVO 110250Z 23009KT 9999 FEW026 05/03 Q1008 NOSIG RMK BLU BLU

czas: 04:12 (04:12 UTC)

Prognoza

Raport powstał 5 godziny i 43 minut temu, godzina 22:29 UTC
Prognoza ważna od 11 godzina 00 UTC do 11 godzina 12 UTC
Wiatr 10 kt od zachodnio-południowy zachód
Widzialność 10 km lub więcej
Mało chmury na wysokości 3000 ft

TAF: EGVO 102229Z 1100/1112 25010KT 9999 FEW030

Obserwacja i prognoza pogody dla ponad 4000 lotnisk (raport METAR i TAF).

Dostępne stacje oznaczono żółtymi i czerwonymi punktami na mapie.

Najedź kursorem aby zobaczyć nazwę stacji.

Kliknij aby zobaczyć obserwacje i prognozy pogody.

Aby zmienić mapę: kliknij na zielony przycisk z czarnym krzyżykiem, aby powiększyć; na zielony przycisk z myślnikiem, aby pomniejszyć; na zielone strzałki, aby przejść do map sąsiednich.


METAR-TAF: